Time;durP1;ratioP1;P1;durP2;ratioP2;P2;SDS_P1;SDS_P2;PMS_P1;PMS_P2;Temp;Humidity;BMP_temperature;BMP_pressure;BME280_temperature;BME280_humidity;BME280_pressure;Samples;Min_cycle;Max_cycle;Signal;HPM_P1;HPM_P2
2022/02/06 00:02:15;;;;;;;42.72;19.45;;;;;;;;;;5013454;28;20073;-74
2022/02/06 00:04:43;;;;;;;37.63;18.80;;;;;;;;;;5006137;28;20018;-77
2022/02/06 00:07:09;;;;;;;36.40;19.67;;;;;;;;;;5009053;28;20089;-75
2022/02/06 00:09:45;;;;;;;27.02;16.40;;;;;;;;;;5020001;28;20022;-78
2022/02/06 00:12:11;;;;;;;28.40;16.08;;;;;;;;;;5010886;28;20030;-78
2022/02/06 00:14:40;;;;;;;29.83;14.63;;;;;;;;;;5028363;28;20498;-75
2022/02/06 00:17:07;;;;;;;31.98;15.82;;;;;;;;;;5022763;28;20042;-77
2022/02/06 00:19:33;;;;;;;41.67;18.05;;;;;;;;;;5014370;28;20034;-76
2022/02/06 00:22:02;;;;;;;40.30;16.67;;;;;;;;;;5020466;28;20065;-77
2022/02/06 00:24:42;;;;;;;51.85;20.63;;;;;;;;;;5030587;28;20049;-77
2022/02/06 00:27:15;;;;;;;41.92;17.90;;;;;;;;;;5013838;28;20061;-77
2022/02/06 00:29:55;;;;;;;29.07;15.53;;;;;;;;;;5024211;28;20026;-77
2022/02/06 00:32:42;;;;;;;29.65;15.45;;;;;;;;;;5016117;28;20031;-78
2022/02/06 00:35:28;;;;;;;84.00;29.75;;;;;;;;;;5013787;28;20025;-76
2022/02/06 00:43:17;;;;;;;54.25;21.02;;;;;;;;;;5022652;28;20065;-77
2022/02/06 00:45:43;;;;;;;40.20;16.98;;;;;;;;;;5009780;28;20033;-78
2022/02/06 00:48:09;;;;;;;35.20;16.50;;;;;;;;;;5010337;28;20105;-78
2022/02/06 00:50:37;;;;;;;34.33;15.38;;;;;;;;;;5021925;28;20026;-77
2022/02/06 00:55:31;;;;;;;36.60;15.40;;;;;;;;;;5027095;28;20034;-78
2022/02/06 00:57:58;;;;;;;31.60;14.60;;;;;;;;;;5032308;28;20018;-77
2022/02/06 01:00:25;;;;;;;25.48;13.68;;;;;;;;;;5029601;28;20030;-76
2022/02/06 01:02:54;;;;;;;26.88;12.93;;;;;;;;;;5017447;28;20042;-75
2022/02/06 01:05:29;;;;;;;50.72;19.55;;;;;;;;;;5011805;28;20053;-77
2022/02/06 01:07:55;;;;;;;34.15;14.55;;;;;;;;;;5013051;28;20018;-76
2022/02/06 01:10:35;;;;;;;37.58;15.88;;;;;;;;;;5012482;28;20022;-78
2022/02/06 01:13:41;;;;;;;43.67;17.15;;;;;;;;;;5023471;28;20030;-78
2022/02/06 01:16:22;;;;;;;35.45;16.88;;;;;;;;;;5027330;28;20502;-76
2022/02/06 01:18:59;;;;;;;41.42;17.20;;;;;;;;;;5029823;28;20062;-78
2022/02/06 01:24:17;;;;;;;;;;;;;;;;;;5033439;28;20125;-77
2022/02/06 01:27:05;;;;;;;40.15;16.42;;;;;;;;;;5033822;28;19912;-77
2022/02/06 01:29:58;;;;;;;70.63;26.08;;;;;;;;;;5028532;28;20045;-76
2022/02/06 01:32:32;;;;;;;64.47;25.25;;;;;;;;;;5009430;28;20022;-77
2022/02/06 01:35:08;;;;;;;66.47;24.67;;;;;;;;;;5024961;28;20010;-77
2022/02/06 01:37:44;;;;;;;64.25;27.08;;;;;;;;;;5032307;28;20022;-77
2022/02/06 01:40:30;;;;;;;66.30;28.17;;;;;;;;;;5028641;28;20046;-77
2022/02/06 01:43:02;;;;;;;41.42;16.92;;;;;;;;;;5026040;28;20033;-77
2022/02/06 02:15:32;;;;;;;20.38;10.27;;;;;;;;;;5017421;28;20023;-78
2022/02/06 02:18:05;;;;;;;18.27;9.35;;;;;;;;;;5030204;28;20036;-78
2022/02/06 02:21:01;;;;;;;20.70;8.98;;;;;;;;;;5031109;28;20037;-78
2022/02/06 02:26:46;;;;;;;40.78;14.52;;;;;;;;;;5028410;28;20061;-76
2022/02/06 02:47:42;;;;;;;40.13;14.63;;;;;;;;;;5038619;28;20045;-72
2022/02/06 02:50:16;;;;;;;45.63;14.60;;;;;;;;;;5039122;28;20026;-72
2022/02/06 02:55:26;;;;;;;33.00;12.05;;;;;;;;;;5034005;28;20040;-75
2022/02/06 02:58:02;;;;;;;39.08;14.85;;;;;;;;;;5048347;28;20037;-78
2022/02/06 03:00:39;;;;;;;40.92;13.32;;;;;;;;;;5052476;28;20018;-77
2022/02/06 03:03:22;;;;;;;33.63;11.68;;;;;;;;;;5047571;28;20104;-73
2022/02/06 03:05:50;;;;;;;41.40;16.53;;;;;;;;;;5050487;28;20029;-72
2022/02/06 03:08:17;;;;;;;66.35;23.25;;;;;;;;;;5039596;28;20311;-72
2022/02/06 03:10:44;;;;;;;41.88;17.33;;;;;;;;;;5058113;28;20018;-72
2022/02/06 03:13:13;;;;;;;31.65;13.25;;;;;;;;;;5057801;28;20024;-72
2022/02/06 03:18:28;;;;;;;14.85;7.47;;;;;;;;;;5045106;28;20038;-72
2022/02/06 03:20:54;;;;;;;15.50;7.13;;;;;;;;;;5049092;28;20033;-72
2022/02/06 03:23:21;;;;;;;26.52;9.80;;;;;;;;;;5041348;28;20037;-71
2022/02/06 03:25:51;;;;;;;34.55;12.27;;;;;;;;;;5043029;28;20029;-72
2022/02/06 03:28:18;;;;;;;25.13;10.90;;;;;;;;;;5049188;28;20022;-72
2022/02/06 03:30:44;;;;;;;35.22;12.68;;;;;;;;;;5057018;28;20040;-72
2022/02/06 03:33:10;;;;;;;37.35;14.25;;;;;;;;;;5030170;28;20050;-72
2022/02/06 03:35:36;;;;;;;58.08;18.75;;;;;;;;;;5028061;28;20017;-72
2022/02/06 03:38:02;;;;;;;39.45;13.82;;;;;;;;;;5033237;28;20040;-72
2022/02/06 03:40:36;;;;;;;19.55;8.60;;;;;;;;;;5036372;28;20100;-72
2022/02/06 03:43:07;;;;;;;29.73;8.80;;;;;;;;;;5035503;28;20037;-72
2022/02/06 03:45:44;;;;;;;16.38;7.47;;;;;;;;;;5017048;28;20027;-73
2022/02/06 03:48:14;;;;;;;17.27;7.00;;;;;;;;;;5026825;28;20038;-72
2022/02/06 03:50:46;;;;;;;18.88;6.57;;;;;;;;;;5014897;28;20034;-72
2022/02/06 03:53:18;;;;;;;14.90;6.40;;;;;;;;;;5017239;28;20089;-72
2022/02/06 03:55:44;;;;;;;15.07;7.03;;;;;;;;;;5019641;28;20026;-72
2022/02/06 03:58:10;;;;;;;12.73;6.18;;;;;;;;;;5002215;28;20030;-72
2022/02/06 04:00:36;;;;;;;12.05;5.95;;;;;;;;;;5003279;28;20037;-72
2022/02/06 04:03:04;;;;;;;13.93;7.00;;;;;;;;;;5008565;28;20104;-72
2022/02/06 04:05:30;;;;;;;14.75;6.97;;;;;;;;;;5017013;28;20045;-72
2022/02/06 04:07:56;;;;;;;18.48;7.28;;;;;;;;;;5008851;28;20023;-72
2022/02/06 04:10:34;;;;;;;15.52;7.72;;;;;;;;;;4997521;28;20049;-72
2022/02/06 04:13:02;;;;;;;20.38;9.48;;;;;;;;;;4997476;28;20026;-72
2022/02/06 04:15:38;;;;;;;24.25;10.75;;;;;;;;;;4998246;28;20046;-72
2022/02/06 04:18:12;;;;;;;144.23;58.60;;;;;;;;;;5009321;28;20026;-72
2022/02/06 04:20:38;;;;;;;46.00;18.52;;;;;;;;;;5015088;28;20034;-72
2022/02/06 04:23:04;;;;;;;41.35;16.05;;;;;;;;;;5007599;28;20034;-72
2022/02/06 04:25:30;;;;;;;45.78;18.23;;;;;;;;;;4995758;28;20030;-71
2022/02/06 04:27:56;;;;;;;53.97;21.23;;;;;;;;;;4999790;28;20036;-72
2022/02/06 04:30:24;;;;;;;44.00;17.17;;;;;;;;;;5006835;28;20026;-72
2022/02/06 04:32:53;;;;;;;55.08;18.85;;;;;;;;;;5026924;28;20057;-72
2022/02/06 04:35:28;;;;;;;33.58;14.27;;;;;;;;;;5030174;28;20029;-72
2022/02/06 04:38:49;;;;;;;26.02;10.68;;;;;;;;;;5010987;28;20030;-73
2022/02/06 05:15:52;;;;;;;12.95;3.80;;;;;;;;;;5036831;28;20033;-72
2022/02/06 05:21:16;;;;;;;14.27;4.15;;;;;;;;;;5036667;28;20014;-71
2022/02/06 05:29:06;;;;;;;8.13;3.72;;;;;;;;;;5000127;28;20013;-72
2022/02/06 05:31:43;;;;;;;11.30;4.13;;;;;;;;;;5015784;28;20049;-72
2022/02/06 05:34:09;;;;;;;21.77;4.85;;;;;;;;;;5015465;28;20029;-72
2022/02/06 05:36:35;;;;;;;8.05;3.35;;;;;;;;;;5017736;28;20046;-75
2022/02/06 05:39:01;;;;;;;18.30;4.70;;;;;;;;;;5046658;23;20036;-74
2022/02/06 05:41:27;;;;;;;18.40;4.80;;;;;;;;;;5023845;28;20105;-72
2022/02/06 05:43:53;;;;;;;14.15;4.53;;;;;;;;;;5002756;28;20021;-71
2022/02/06 05:46:19;;;;;;;15.82;5.40;;;;;;;;;;5019123;28;20022;-73
2022/02/06 05:48:45;;;;;;;10.48;3.60;;;;;;;;;;5031343;28;20007;-73
2022/02/06 05:51:13;;;;;;;10.27;4.15;;;;;;;;;;5036108;28;20030;-73
2022/02/06 05:53:39;;;;;;;10.68;4.28;;;;;;;;;;5030268;28;20050;-72
2022/02/06 05:56:06;;;;;;;11.23;5.20;;;;;;;;;;5004668;28;20021;-73
2022/02/06 05:58:41;;;;;;;15.95;6.20;;;;;;;;;;5018095;28;20026;-72
2022/02/06 06:01:09;;;;;;;18.23;7.20;;;;;;;;;;5016685;28;20061;-72
2022/02/06 06:03:35;;;;;;;22.10;6.53;;;;;;;;;;5030140;28;20106;-72
2022/02/06 06:06:01;;;;;;;15.98;5.43;;;;;;;;;;5041179;23;20045;-72
2022/02/06 06:08:27;;;;;;;31.70;9.30;;;;;;;;;;5039833;28;20025;-73
2022/02/06 06:10:53;;;;;;;84.97;33.60;;;;;;;;;;5023727;28;20073;-73
2022/02/06 06:13:20;;;;;;;193.65;72.28;;;;;;;;;;5039210;28;20056;-73
2022/02/06 06:15:46;;;;;;;93.38;36.30;;;;;;;;;;5038263;28;20022;-72
2022/02/06 06:18:15;;;;;;;40.33;14.90;;;;;;;;;;5009250;28;20133;-71
2022/02/06 06:20:44;;;;;;;21.02;7.50;;;;;;;;;;5019062;28;20022;-71
2022/02/06 06:23:10;;;;;;;20.30;6.47;;;;;;;;;;4999069;28;20014;-75
2022/02/06 06:25:39;;;;;;;13.00;5.72;;;;;;;;;;5019663;28;20030;-73
2022/02/06 06:28:08;;;;;;;22.20;6.43;;;;;;;;;;5020346;28;20025;-72
2022/02/06 06:30:35;;;;;;;21.45;7.93;;;;;;;;;;5040172;28;20017;-72
2022/02/06 06:33:05;;;;;;;21.10;8.48;;;;;;;;;;5017508;28;20026;-74
2022/02/06 06:35:31;;;;;;;15.57;5.97;;;;;;;;;;5018145;28;20066;-73
2022/02/06 06:38:02;;;;;;;13.13;5.85;;;;;;;;;;5018335;28;20464;-74
2022/02/06 06:40:28;;;;;;;8.05;4.60;;;;;;;;;;4997033;28;20080;-75
2022/02/06 06:42:54;;;;;;;5.47;3.10;;;;;;;;;;5003365;28;20034;-74
2022/02/06 06:45:47;;;;;;;8.15;3.30;;;;;;;;;;4994823;28;20034;-78
2022/02/06 06:48:13;;;;;;;10.27;3.53;;;;;;;;;;4995345;28;20022;-77
2022/02/06 06:51:02;;;;;;;6.30;2.80;;;;;;;;;;5013949;28;20031;-78
2022/02/06 06:58:46;;;;;;;5.43;3.42;;;;;;;;;;4971457;26;20051;-77
2022/02/06 07:04:00;;;;;;;9.20;3.40;;;;;;;;;;5010190;28;20030;-74
2022/02/06 07:06:26;;;;;;;11.25;3.25;;;;;;;;;;5007418;28;20026;-78
2022/02/06 07:08:52;;;;;;;11.02;3.72;;;;;;;;;;5008683;28;20097;-77
2022/02/06 07:11:18;;;;;;;9.38;3.38;;;;;;;;;;5008612;28;20484;-76
2022/02/06 07:13:44;;;;;;;9.95;2.90;;;;;;;;;;5002967;28;20694;-75
2022/02/06 07:16:11;;;;;;;7.20;3.28;;;;;;;;;;5000299;28;20038;-75
2022/02/06 07:18:39;;;;;;;4.07;2.53;;;;;;;;;;5015328;28;20010;-76
2022/02/06 07:21:05;;;;;;;9.40;3.00;;;;;;;;;;4997417;28;20240;-77
2022/02/06 07:23:31;;;;;;;11.10;5.72;;;;;;;;;;4995143;28;20046;-77
2022/02/06 07:26:03;;;;;;;7.97;3.63;;;;;;;;;;5005663;28;20030;-77
2022/02/06 07:28:50;;;;;;;11.48;4.20;;;;;;;;;;4995214;28;20027;-77
2022/02/06 07:31:17;;;;;;;4.63;3.03;;;;;;;;;;5006195;28;20034;-78
2022/02/06 07:33:43;;;;;;;5.38;2.38;;;;;;;;;;4985778;28;20023;-83
2022/02/06 07:36:09;;;;;;;4.13;2.13;;;;;;;;;;4986001;28;20026;-78
2022/02/06 07:38:36;;;;;;;7.57;2.75;;;;;;;;;;4988437;28;20030;-83
2022/02/06 07:41:02;;;;;;;5.57;2.40;;;;;;;;;;4988586;28;20057;-73
2022/02/06 07:43:28;;;;;;;7.78;2.20;;;;;;;;;;4986582;28;20029;-75
2022/02/06 07:45:54;;;;;;;5.43;2.60;;;;;;;;;;4989579;28;20018;-75
2022/02/06 07:48:20;;;;;;;6.85;2.70;;;;;;;;;;4979760;28;20404;-75
2022/02/06 07:50:46;;;;;;;6.63;2.60;;;;;;;;;;4982752;28;20084;-75
2022/02/06 07:53:12;;;;;;;6.65;2.50;;;;;;;;;;4988592;28;20480;-75
2022/02/06 07:55:38;;;;;;;13.80;8.80;;;;;;;;;;4981851;28;20140;-81
2022/02/06 07:58:04;;;;;;;31.48;20.45;;;;;;;;;;4986380;28;20087;-74
2022/02/06 08:00:33;;;;;;;12.68;8.80;;;;;;;;;;4986560;28;20026;-85
2022/02/06 08:03:00;;;;;;;6.13;4.45;;;;;;;;;;4986901;28;20074;-79
2022/02/06 08:05:27;;;;;;;7.90;4.20;;;;;;;;;;4982482;28;20507;-89
2022/02/06 08:07:54;;;;;;;7.70;5.55;;;;;;;;;;4983040;28;20065;-81
2022/02/06 08:10:21;;;;;;;5.00;3.97;;;;;;;;;;4986312;28;20019;-79
2022/02/06 08:12:54;;;;;;;6.80;4.43;;;;;;;;;;4979552;28;20030;-80
2022/02/06 08:15:21;;;;;;;12.13;8.75;;;;;;;;;;4979967;28;20030;-81
2022/02/06 08:17:47;;;;;;;13.38;5.97;;;;;;;;;;4981596;28;20105;-82
2022/02/06 08:20:14;;;;;;;13.13;6.93;;;;;;;;;;4989026;28;20033;-76
2022/02/06 08:22:43;;;;;;;15.70;7.32;;;;;;;;;;4974623;28;20434;-73
2022/02/06 08:25:14;;;;;;;16.48;5.80;;;;;;;;;;4976143;28;20030;-75
2022/02/06 08:27:41;;;;;;;9.63;4.93;;;;;;;;;;4978212;28;20070;-74
2022/02/06 08:30:08;;;;;;;6.97;4.82;;;;;;;;;;4982705;28;20025;-83
2022/02/06 08:32:34;;;;;;;14.25;5.63;;;;;;;;;;4979338;28;20031;-87
2022/02/06 08:35:00;;;;;;;7.85;5.15;;;;;;;;;;4979762;28;20117;-83
2022/02/06 08:37:26;;;;;;;15.30;5.70;;;;;;;;;;4978994;28;20503;-82
2022/02/06 08:39:53;;;;;;;13.43;5.78;;;;;;;;;;4977034;28;20042;-81
2022/02/06 08:42:19;;;;;;;7.72;5.28;;;;;;;;;;4977589;28;20046;-84
2022/02/06 08:44:46;;;;;;;8.05;4.82;;;;;;;;;;4979580;28;21960;-86
2022/02/06 08:47:13;;;;;;;8.80;4.78;;;;;;;;;;4973412;28;20556;-81
2022/02/06 08:49:40;;;;;;;6.68;4.93;;;;;;;;;;4988741;28;20022;-75
2022/02/06 08:59:57;;;;;;;8.60;4.53;;;;;;;;;;5151969;23;20106;-79
2022/02/06 09:02:24;;;;;;;9.45;5.45;;;;;;;;;;4984816;28;20046;-74
2022/02/06 09:04:50;;;;;;;10.10;5.38;;;;;;;;;;4976362;28;20509;-73
2022/02/06 09:07:20;;;;;;;8.10;4.07;;;;;;;;;;4968351;28;20043;-69
2022/02/06 09:09:56;;;;;;;8.70;4.05;;;;;;;;;;4970513;28;20476;-71
2022/02/06 09:12:22;;;;;;;18.30;5.30;;;;;;;;;;4972435;28;20038;-75
2022/02/06 09:14:48;;;;;;;8.98;5.43;;;;;;;;;;4972516;28;20551;-71
2022/02/06 09:17:15;;;;;;;11.10;6.22;;;;;;;;;;4980362;28;20037;-74
2022/02/06 09:19:41;;;;;;;17.88;6.63;;;;;;;;;;4983782;28;20027;-74
2022/02/06 09:22:11;;;;;;;11.45;5.15;;;;;;;;;;4976476;28;20039;-70
2022/02/06 09:24:37;;;;;;;7.40;4.45;;;;;;;;;;4985806;28;20026;-71
2022/02/06 09:27:05;;;;;;;12.63;7.22;;;;;;;;;;4999844;28;20030;-77
2022/02/06 09:29:31;;;;;;;7.13;3.97;;;;;;;;;;4986524;28;20026;-70
2022/02/06 09:31:57;;;;;;;16.52;5.13;;;;;;;;;;4990639;28;20025;-70
2022/02/06 09:36:50;;;;;;;7.47;3.97;;;;;;;;;;4989311;28;20039;-74
2022/02/06 09:39:16;;;;;;;16.88;6.35;;;;;;;;;;5005156;28;20063;-72
2022/02/06 09:41:48;;;;;;;15.85;4.88;;;;;;;;;;4994617;28;20483;-75
2022/02/06 09:44:15;;;;;;;19.45;4.30;;;;;;;;;;4983310;28;20031;-72
2022/02/06 09:46:43;;;;;;;21.50;12.20;;;;;;;;;;4990174;28;20830;-73
2022/02/06 09:49:09;;;;;;;12.27;4.55;;;;;;;;;;4988764;28;20031;-70
2022/02/06 09:51:38;;;;;;;17.27;5.50;;;;;;;;;;4984810;28;20053;-76
2022/02/06 09:54:04;;;;;;;6.43;3.83;;;;;;;;;;4993621;28;20062;-69
2022/02/06 09:56:33;;;;;;;11.93;4.68;;;;;;;;;;4997076;28;20101;-72
2022/02/06 09:59:16;;;;;;;10.18;6.13;;;;;;;;;;4987695;28;20051;-70
2022/02/06 10:01:44;;;;;;;18.20;9.35;;;;;;;;;;4979149;28;20443;-73
2022/02/06 10:04:12;;;;;;;7.40;4.05;;;;;;;;;;4969887;28;20031;-71
2022/02/06 10:06:56;;;;;;;10.23;4.75;;;;;;;;;;4980330;28;20033;-75
2022/02/06 10:09:34;;;;;;;8.02;4.65;;;;;;;;;;4978554;28;20078;-69
2022/02/06 10:12:01;;;;;;;8.10;4.47;;;;;;;;;;4982463;28;20030;-71
2022/02/06 10:14:29;;;;;;;12.23;4.97;;;;;;;;;;4966460;28;20027;-72
2022/02/06 10:16:55;;;;;;;24.02;6.47;;;;;;;;;;4986436;28;20040;-70
2022/02/06 10:19:21;;;;;;;15.88;6.63;;;;;;;;;;4962562;28;20039;-79
2022/02/06 10:21:48;;;;;;;9.73;5.40;;;;;;;;;;4982547;28;20535;-72
2022/02/06 10:24:26;;;;;;;8.07;4.63;;;;;;;;;;4967513;28;20493;-71
2022/02/06 10:27:03;;;;;;;7.30;4.75;;;;;;;;;;4967146;28;20081;-73
2022/02/06 10:29:44;;;;;;;14.30;5.60;;;;;;;;;;4978657;28;20061;-74
2022/02/06 10:32:19;;;;;;;11.23;6.90;;;;;;;;;;4966321;28;20019;-74
2022/02/06 10:34:45;;;;;;;11.32;5.93;;;;;;;;;;4975021;28;20035;-76
2022/02/06 10:37:18;;;;;;;7.03;4.50;;;;;;;;;;4976763;28;20473;-75
2022/02/06 10:39:51;;;;;;;23.83;7.95;;;;;;;;;;4972472;28;20488;-72
2022/02/06 10:42:27;;;;;;;13.38;6.47;;;;;;;;;;4965627;28;20038;-71
2022/02/06 10:45:11;;;;;;;8.65;5.43;;;;;;;;;;4959271;28;20035;-73
2022/02/06 10:47:38;;;;;;;11.43;5.80;;;;;;;;;;4959133;28;20039;-72
2022/02/06 10:50:08;;;;;;;13.07;7.22;;;;;;;;;;4986386;28;20397;-71
2022/02/06 10:52:34;;;;;;;13.15;6.47;;;;;;;;;;4969536;28;20018;-72
2022/02/06 10:55:00;;;;;;;12.95;5.97;;;;;;;;;;4961695;28;20035;-72
2022/02/06 10:57:28;;;;;;;9.60;5.00;;;;;;;;;;4988542;28;20019;-77
2022/02/06 10:59:56;;;;;;;12.88;5.88;;;;;;;;;;4987494;28;20210;-69
2022/02/06 11:02:36;;;;;;;9.32;4.72;;;;;;;;;;4998509;28;20049;-70
2022/02/06 11:05:17;;;;;;;10.43;4.80;;;;;;;;;;5021999;23;20058;-69
2022/02/06 11:08:00;;;;;;;12.82;7.13;;;;;;;;;;5010743;28;20024;-70
2022/02/06 11:10:27;;;;;;;13.68;6.93;;;;;;;;;;5011784;28;20022;-70
2022/02/06 11:12:55;;;;;;;22.42;9.68;;;;;;;;;;5039238;28;20018;-69
2022/02/06 11:15:28;;;;;;;13.35;5.88;;;;;;;;;;5034157;28;20038;-69
2022/02/06 11:18:14;;;;;;;9.75;5.05;;;;;;;;;;5013013;28;20028;-67
2022/02/06 11:20:52;;;;;;;9.70;4.70;;;;;;;;;;5014178;28;20054;-78
2022/02/06 11:23:18;;;;;;;8.80;5.20;;;;;;;;;;5016527;28;20550;-71
2022/02/06 11:25:47;;;;;;;9.05;5.32;;;;;;;;;;5010518;28;20468;-77
2022/02/06 11:28:33;;;;;;;11.30;6.90;;;;;;;;;;4992474;28;20022;-76
2022/02/06 11:31:03;;;;;;;23.10;5.05;;;;;;;;;;4995714;28;20121;-73
2022/02/06 11:33:46;;;;;;;23.83;13.85;;;;;;;;;;4990593;28;20039;-76
2022/02/06 11:43:00;;;;;;;17.23;9.13;;;;;;;;;;4978777;28;20046;-74
2022/02/06 11:44:44;;;;;;;21.10;9.20;;;;;;;;;;4994238;28;20050;-74
2022/02/06 11:47:20;;;;;;;11.30;6.35;;;;;;;;;;4985686;28;20033;-72
2022/02/06 11:49:52;;;;;;;20.60;11.32;;;;;;;;;;4992400;28;20034;-74
2022/02/06 11:52:22;;;;;;;11.68;6.68;;;;;;;;;;4979370;28;20022;-74
2022/02/06 11:54:54;;;;;;;23.20;7.60;;;;;;;;;;4980683;28;20043;-72
2022/02/06 11:57:38;;;;;;;22.25;9.32;;;;;;;;;;4986939;28;20058;-74
2022/02/06 12:00:05;;;;;;;18.50;7.40;;;;;;;;;;4990909;28;20132;-74
2022/02/06 12:02:35;;;;;;;10.18;5.53;;;;;;;;;;4999660;28;20049;-75
2022/02/06 12:05:07;;;;;;;7.47;5.20;;;;;;;;;;5000675;28;20531;-75
2022/02/06 12:07:54;;;;;;;9.88;5.38;;;;;;;;;;4999062;28;20522;-75
2022/02/06 12:10:35;;;;;;;9.52;6.10;;;;;;;;;;4901700;29;20048;-75
2022/02/06 12:13:26;;;;;;;27.05;13.25;;;;;;;;;;4914184;29;20048;-77
2022/02/06 12:16:03;;;;;;;17.15;7.38;;;;;;;;;;4897664;29;20036;-76
2022/02/06 12:18:35;;;;;;;13.70;7.28;;;;;;;;;;4908206;29;20031;-75
2022/02/06 12:21:20;;;;;;;13.52;9.00;;;;;;;;;;4895575;29;20373;-75
2022/02/06 12:23:55;;;;;;;13.52;7.50;;;;;;;;;;4901275;29;20053;-76
2022/02/06 12:28:53;;;;;;;14.80;8.25;;;;;;;;;;4908286;29;20125;-76
2022/02/06 12:31:27;;;;;;;34.67;14.80;;;;;;;;;;4917376;29;20497;-76
2022/02/06 12:39:27;;;;;;;20.15;10.13;;;;;;;;;;4912234;29;20036;-77
2022/02/06 12:41:55;;;;;;;16.73;8.82;;;;;;;;;;4903126;29;20491;-76
2022/02/06 12:44:26;;;;;;;13.98;7.60;;;;;;;;;;4895639;29;20064;-76
2022/02/06 12:47:00;;;;;;;20.90;10.82;;;;;;;;;;4927092;28;20038;-76
2022/02/06 12:49:30;;;;;;;21.27;11.05;;;;;;;;;;5016449;28;20033;-76
2022/02/06 12:55:37;;;;;;;20.88;9.80;;;;;;;;;;5357415;23;20077;-77
2022/02/06 12:58:29;;;;;;;20.83;10.52;;;;;;;;;;4991708;28;20046;-77
2022/02/06 13:01:00;;;;;;;22.27;13.25;;;;;;;;;;4939982;29;20035;-77
2022/02/06 13:03:42;;;;;;;15.48;9.02;;;;;;;;;;4945477;29;20079;-78
2022/02/06 13:06:32;;;;;;;18.33;10.65;;;;;;;;;;4945890;29;20035;-79
2022/02/06 13:09:18;;;;;;;14.25;8.02;;;;;;;;;;4940284;29;20035;-79
2022/02/06 13:12:14;;;;;;;12.63;7.53;;;;;;;;;;4951951;29;20568;-80
2022/02/06 13:17:59;;;;;;;16.95;9.13;;;;;;;;;;4927759;29;20051;-78
2022/02/06 13:24:10;;;;;;;19.33;10.55;;;;;;;;;;4867030;29;20041;-79
2022/02/06 13:26:52;;;;;;;15.90;8.60;;;;;;;;;;4838199;29;20062;-73
2022/02/06 13:37:59;;;;;;;17.70;7.88;;;;;;;;;;4892624;29;20036;-78
2022/02/06 13:40:32;;;;;;;13.48;8.73;;;;;;;;;;4893077;29;20041;-77
2022/02/06 13:43:09;;;;;;;13.23;7.80;;;;;;;;;;4900310;29;20017;-76
2022/02/06 13:45:36;;;;;;;17.27;9.60;;;;;;;;;;4873179;29;20049;-76
2022/02/06 13:48:14;;;;;;;17.27;7.47;;;;;;;;;;4851700;29;20041;-77
2022/02/06 13:50:58;;;;;;;22.83;13.27;;;;;;;;;;4856564;29;20038;-75
2022/02/06 13:53:26;;;;;;;23.73;10.03;;;;;;;;;;4849647;29;20067;-75
2022/02/06 13:56:03;;;;;;;11.43;7.60;;;;;;;;;;4862960;29;20050;-75
2022/02/06 13:59:11;;;;;;;11.82;6.43;;;;;;;;;;4858475;29;20021;-76
2022/02/06 14:01:51;;;;;;;11.27;5.65;;;;;;;;;;4863607;29;20042;-74
2022/02/06 14:04:40;;;;;;;11.77;5.70;;;;;;;;;;4902500;29;20082;-74
2022/02/06 14:07:11;;;;;;;9.65;5.40;;;;;;;;;;4933287;29;20027;-76
2022/02/06 14:12:25;;;;;;;22.98;8.77;;;;;;;;;;4985576;28;20043;-79
2022/02/06 14:14:56;;;;;;;18.38;9.40;;;;;;;;;;5009331;28;20035;-76
2022/02/06 14:17:30;;;;;;;13.95;7.10;;;;;;;;;;5013850;28;20038;-75
2022/02/06 14:20:14;;;;;;;19.48;9.05;;;;;;;;;;5010052;28;20061;-74
2022/02/06 14:22:52;;;;;;;13.43;6.10;;;;;;;;;;5014037;28;20050;-76
2022/02/06 14:25:29;;;;;;;15.65;8.85;;;;;;;;;;5011918;28;20014;-78
2022/02/06 14:28:15;;;;;;;15.88;7.95;;;;;;;;;;4979531;28;20161;-74
2022/02/06 14:30:42;;;;;;;14.68;9.00;;;;;;;;;;4992356;28;20046;-77
2022/02/06 14:33:10;;;;;;;16.58;8.80;;;;;;;;;;4992752;28;20041;-75
2022/02/06 14:35:48;;;;;;;17.85;9.52;;;;;;;;;;4988257;28;20034;-74
2022/02/06 14:38:22;;;;;;;26.90;14.82;;;;;;;;;;4988521;28;20046;-77
2022/02/06 14:43:44;;;;;;;18.90;10.90;;;;;;;;;;4950842;28;20046;-74
2022/02/06 14:46:12;;;;;;;23.35;11.98;;;;;;;;;;4952516;29;20035;-78
2022/02/06 14:48:46;;;;;;;17.55;9.07;;;;;;;;;;4953182;29;20050;-77
2022/02/06 14:51:18;;;;;;;33.85;8.30;;;;;;;;;;4952035;29;20097;-77
2022/02/06 14:53:48;;;;;;;9.55;5.40;;;;;;;;;;4946575;29;20110;-75
2022/02/06 14:56:17;;;;;;;12.77;7.32;;;;;;;;;;4950973;29;20067;-78
2022/02/06 14:58:45;;;;;;;11.88;7.20;;;;;;;;;;4951177;29;20036;-76
2022/02/06 15:01:14;;;;;;;15.85;7.03;;;;;;;;;;4950356;29;20035;-75
2022/02/06 15:03:40;;;;;;;19.75;8.25;;;;;;;;;;4967473;29;20424;-76
2022/02/06 15:06:14;;;;;;;16.85;8.32;;;;;;;;;;4967931;28;20399;-75
2022/02/06 15:08:40;;;;;;;13.98;6.88;;;;;;;;;;4966274;28;20073;-74
2022/02/06 15:11:06;;;;;;;12.25;7.25;;;;;;;;;;4958465;28;20497;-76
2022/02/06 15:13:35;;;;;;;11.27;7.53;;;;;;;;;;4969006;28;20050;-76
2022/02/06 15:16:13;;;;;;;15.63;6.78;;;;;;;;;;5010479;28;20030;-73
2022/02/06 15:18:42;;;;;;;16.20;6.80;;;;;;;;;;5018222;28;20459;-74
2022/02/06 15:21:23;;;;;;;30.77;10.65;;;;;;;;;;4998921;28;20035;-78
2022/02/06 15:24:00;;;;;;;29.92;14.75;;;;;;;;;;5005766;28;20105;-74
2022/02/06 15:26:28;;;;;;;37.70;18.15;;;;;;;;;;4994184;28;20026;-78
2022/02/06 15:28:54;;;;;;;32.67;13.52;;;;;;;;;;5004415;28;20034;-75
2022/02/06 15:31:20;;;;;;;29.00;13.98;;;;;;;;;;5005400;28;20034;-76
2022/02/06 15:33:51;;;;;;;36.35;16.88;;;;;;;;;;5005584;28;20026;-76
2022/02/06 15:36:17;;;;;;;58.53;25.75;;;;;;;;;;4968672;28;20034;-74
2022/02/06 15:38:50;;;;;;;46.08;27.33;;;;;;;;;;4995463;28;20081;-76
2022/02/06 15:41:19;;;;;;;36.58;21.08;;;;;;;;;;5010855;28;20139;-79
2022/02/06 15:43:46;;;;;;;17.00;9.43;;;;;;;;;;4998474;28;20034;-75
2022/02/06 15:46:12;;;;;;;17.15;9.05;;;;;;;;;;5001765;28;20550;-76
2022/02/06 15:48:38;;;;;;;19.00;9.10;;;;;;;;;;4996868;28;20499;-76
2022/02/06 15:51:04;;;;;;;16.33;8.02;;;;;;;;;;4997385;28;20030;-74
2022/02/06 15:53:30;;;;;;;24.98;11.48;;;;;;;;;;4995707;28;20101;-77
2022/02/06 15:55:56;;;;;;;27.35;12.02;;;;;;;;;;5000438;28;20038;-75
2022/02/06 15:58:22;;;;;;;35.42;14.52;;;;;;;;;;5004376;28;20046;-76
2022/02/06 16:00:50;;;;;;;38.38;16.27;;;;;;;;;;4998242;28;20034;-75
2022/02/06 16:03:17;;;;;;;24.95;12.27;;;;;;;;;;4986097;28;20054;-75
2022/02/06 16:05:44;;;;;;;34.15;15.23;;;;;;;;;;5002974;28;20014;-77
2022/02/06 16:08:10;;;;;;;40.47;18.67;;;;;;;;;;4990738;28;20026;-77
2022/02/06 16:10:38;;;;;;;37.05;16.67;;;;;;;;;;4992990;28;20030;-77
2022/02/06 16:13:07;;;;;;;44.80;17.42;;;;;;;;;;4983730;28;20037;-77
2022/02/06 16:15:33;;;;;;;60.15;27.88;;;;;;;;;;5002180;28;20028;-77
2022/02/06 16:17:59;;;;;;;64.60;27.73;;;;;;;;;;5002486;28;20026;-77
2022/02/06 16:20:27;;;;;;;58.95;24.92;;;;;;;;;;5000696;28;20026;-77
2022/02/06 16:22:54;;;;;;;17.83;9.95;;;;;;;;;;5003435;28;20034;-78
2022/02/06 16:25:22;;;;;;;12.15;7.05;;;;;;;;;;5003528;28;20089;-76
2022/02/06 16:27:48;;;;;;;11.60;6.88;;;;;;;;;;5000317;28;20034;-78
2022/02/06 16:30:16;;;;;;;14.85;7.93;;;;;;;;;;5008149;28;20022;-77
2022/02/06 16:32:43;;;;;;;32.10;16.00;;;;;;;;;;5001465;28;20034;-76
2022/02/06 16:35:09;;;;;;;18.33;10.13;;;;;;;;;;5001324;28;20036;-75
2022/02/06 16:37:35;;;;;;;34.67;14.45;;;;;;;;;;5004487;28;20033;-76
2022/02/06 16:40:02;;;;;;;37.70;14.88;;;;;;;;;;5003206;28;20014;-76
2022/02/06 16:42:28;;;;;;;32.22;15.35;;;;;;;;;;4987599;28;20432;-76
2022/02/06 16:47:32;;;;;;;105.03;47.42;;;;;;;;;;5125002;23;20058;-80
2022/02/06 16:49:58;;;;;;;58.88;28.17;;;;;;;;;;4997117;28;20056;-76
2022/02/06 16:52:24;;;;;;;53.50;27.30;;;;;;;;;;5000017;28;20030;-75
2022/02/06 16:54:50;;;;;;;22.38;12.73;;;;;;;;;;5013026;28;20099;-76
2022/02/06 16:57:16;;;;;;;15.25;7.93;;;;;;;;;;5017131;28;20030;-75
2022/02/06 16:59:43;;;;;;;32.13;8.93;;;;;;;;;;5002631;28;20025;-77
2022/02/06 17:02:11;;;;;;;26.02;8.30;;;;;;;;;;5002928;28;20037;-75
2022/02/06 17:04:39;;;;;;;32.28;9.13;;;;;;;;;;5025825;28;20105;-75
2022/02/06 17:07:05;;;;;;;28.25;11.88;;;;;;;;;;5023719;28;20034;-75
2022/02/06 17:09:33;;;;;;;21.52;9.15;;;;;;;;;;5021712;28;20101;-76
2022/02/06 17:17:36;;;;;;;14.40;8.68;;;;;;;;;;5014707;23;20093;-78
2022/02/06 17:20:06;;;;;;;60.45;29.15;;;;;;;;;;5007529;28;20077;-78
2022/02/06 17:22:32;;;;;;;22.70;11.00;;;;;;;;;;5011215;28;20026;-74
2022/02/06 17:25:05;;;;;;;22.48;10.82;;;;;;;;;;4992915;28;20042;-78
2022/02/06 17:27:32;;;;;;;25.30;14.80;;;;;;;;;;4981183;28;20037;-77
2022/02/06 17:29:58;;;;;;;28.20;14.80;;;;;;;;;;5000835;28;20022;-76
2022/02/06 17:32:24;;;;;;;31.95;17.05;;;;;;;;;;4969599;28;20043;-77
2022/02/06 17:34:50;;;;;;;37.35;20.65;;;;;;;;;;4957466;28;20026;-77
2022/02/06 17:37:16;;;;;;;37.83;20.17;;;;;;;;;;4976127;28;20027;-75
2022/02/06 17:39:53;;;;;;;40.05;19.52;;;;;;;;;;4984043;28;20035;-77
2022/02/06 17:42:20;;;;;;;68.93;32.28;;;;;;;;;;4984292;28;20094;-77
2022/02/06 17:44:46;;;;;;;71.60;27.30;;;;;;;;;;4980000;28;20031;-75
2022/02/06 17:47:16;;;;;;;121.50;48.95;;;;;;;;;;4984191;28;20035;-77